Time;durP1;ratioP1;P1;durP2;ratioP2;P2;SDS_P1;SDS_P2;PMS_P1;PMS_P2;Temp;Humidity;BMP_temperature;BMP_pressure;BME280_temperature;BME280_humidity;BME280_pressure;Samples;Min_cycle;Max_cycle;Signal;HPM_P1;HPM_P2
2023/03/17 00:00:09;;;;;;;1.20;1.10;;;5.70;83.90;;;;;;5070703;28;20196;-65
2023/03/17 00:02:36;;;;;;;2.45;1.40;;;5.20;96.90;;;;;;5071143;28;20701;-66
2023/03/17 00:05:03;;;;;;;1.50;1.40;;;5.60;92.30;;;;;;5071729;28;20199;-65
2023/03/17 00:07:30;;;;;;;1.50;1.40;;;;;;;;;;5071299;28;20196;-66
2023/03/17 00:09:57;;;;;;;2.17;1.70;;;5.60;84.40;;;;;;5070397;28;20286;-65
2023/03/17 00:12:25;;;;;;;2.47;1.63;;;5.60;85.00;;;;;;5069028;28;20714;-65
2023/03/17 00:14:52;;;;;;;2.17;1.60;;;5.60;85.20;;;;;;5069040;28;20199;-66
2023/03/17 00:17:19;;;;;;;1.70;1.60;;;5.50;85.10;;;;;;5070865;28;20223;-66
2023/03/17 00:19:46;;;;;;;0.82;0.82;;;5.50;85.30;;;;;;5070538;28;20221;-66
2023/03/17 00:22:17;;;;;;;1.95;1.85;;;5.40;95.40;;;;;;5070399;28;20843;-66
2023/03/17 00:24:44;;;;;;;2.15;1.52;;;5.30;91.10;;;;;;5071587;28;20195;-67
2023/03/17 00:27:12;;;;;;;2.92;2.78;;;5.50;84.70;;;;;;5071138;28;20716;-66
2023/03/17 00:29:40;;;;;;;1.20;1.10;;;5.50;85.30;;;;;;5070105;28;20191;-66
2023/03/17 00:32:16;;;;;;;1.90;1.80;;;5.70;89.30;;;;;;5071702;28;20214;-66
2023/03/17 00:34:43;;;;;;;1.92;1.77;;;;;;;;;;5071449;28;20202;-66
2023/03/17 00:37:12;;;;;;;1.98;1.80;;;5.50;96.70;;;;;;5071866;28;20219;-66
2023/03/17 00:39:39;;;;;;;4.10;1.45;;;5.50;95.80;;;;;;5071283;28;20253;-67
2023/03/17 00:42:06;;;;;;;1.60;1.50;;;5.40;99.30;;;;;;5071080;28;20222;-65
2023/03/17 00:44:33;;;;;;;2.00;1.90;;;5.60;85.90;;;;;;5071175;28;20199;-66
2023/03/17 00:47:01;;;;;;;2.70;2.53;;;5.60;99.90;;;;;;5070935;28;20294;-66
2023/03/17 00:49:29;;;;;;;1.33;1.20;;;5.60;97.50;;;;;;5070592;28;20205;-66
2023/03/17 00:51:56;;;;;;;1.38;1.23;;;;;;;;;;5070618;28;20564;-66
2023/03/17 00:54:23;;;;;;;3.75;1.98;;;5.60;97.10;;;;;;5071118;28;20294;-65
2023/03/17 00:56:51;;;;;;;2.05;1.15;;;5.60;96.70;;;;;;5071075;28;20302;-66
2023/03/17 00:59:24;;;;;;;2.05;1.45;;;5.50;85.90;;;;;;5069904;28;20583;-66
2023/03/17 01:01:51;;;;;;;3.33;2.42;;;5.40;99.90;;;;;;5068952;28;20334;-66
2023/03/17 01:04:19;;;;;;;2.10;1.80;;;5.40;94.60;;;;;;5071610;28;20201;-66
2023/03/17 01:06:48;;;;;;;3.25;1.80;;;5.30;99.90;;;;;;5070786;28;20227;-66
2023/03/17 01:09:17;;;;;;;1.83;1.25;;;5.50;87.30;;;;;;5070483;28;20683;-66
2023/03/17 01:11:44;;;;;;;2.90;1.80;;;5.40;87.00;;;;;;5066023;28;20231;-67
2023/03/17 01:14:12;;;;;;;2.42;0.98;;;5.70;96.50;;;;;;5068333;28;20311;-67
2023/03/17 01:16:39;;;;;;;2.33;1.17;;;5.10;95.70;;;;;;5067258;28;20227;-68
2023/03/17 01:19:06;;;;;;;1.40;1.30;;;5.50;88.00;;;;;;5068440;28;20231;-66
2023/03/17 01:21:34;;;;;;;4.25;1.67;;;5.50;87.90;;;;;;5068382;28;20700;-67
2023/03/17 01:24:01;;;;;;;1.40;1.40;;;5.20;99.90;;;;;;5064308;28;20657;-65
2023/03/17 01:26:28;;;;;;;2.22;2.03;;;;;;;;;;5068482;28;20219;-66
2023/03/17 01:28:55;;;;;;;2.88;1.50;;;5.30;94.30;;;;;;5066780;28;20274;-66
2023/03/17 01:31:23;;;;;;;1.70;1.10;;;;;;;;;;5068753;28;20215;-66
2023/03/17 01:33:50;;;;;;;1.13;1.08;;;5.00;98.40;;;;;;5069379;28;20203;-66
2023/03/17 01:36:17;;;;;;;1.15;1.05;;;;;;;;;;5069077;28;20219;-65
2023/03/17 01:38:46;;;;;;;1.42;1.30;;;5.40;88.30;;;;;;5069742;28;20547;-68
2023/03/17 01:41:13;;;;;;;1.75;1.50;;;5.90;91.80;;;;;;5070534;28;20208;-67
2023/03/17 01:43:40;;;;;;;2.17;2.08;;;5.80;99.90;;;;;;5069721;28;20227;-67
2023/03/17 01:46:24;;;;;;;3.45;1.75;;;5.20;97.20;;;;;;5069436;28;20215;-66
2023/03/17 01:49:03;;;;;;;1.58;1.55;;;5.40;89.30;;;;;;5069782;28;20594;-66
2023/03/17 01:51:36;;;;;;;2.20;2.08;;;5.20;99.90;;;;;;5064765;28;20207;-66
2023/03/17 01:54:09;;;;;;;0.70;0.70;;;5.40;97.70;;;;;;5066790;28;20256;-66
2023/03/17 01:56:37;;;;;;;1.02;0.85;;;5.40;88.80;;;;;;5060322;28;20215;-67
2023/03/17 01:59:08;;;;;;;1.60;0.77;;;5.40;88.80;;;;;;5068937;28;20684;-66
2023/03/17 02:01:38;;;;;;;5.00;1.90;;;5.40;88.70;;;;;;5068542;28;20309;-67
2023/03/17 02:04:07;;;;;;;2.08;1.65;;;5.40;97.90;;;;;;5067163;28;20223;-66
2023/03/17 02:06:35;;;;;;;1.85;1.73;;;5.40;89.00;;;;;;5068069;28;20227;-66
2023/03/17 02:09:02;;;;;;;1.23;1.20;;;5.30;89.00;;;;;;5069359;28;20199;-66
2023/03/17 02:11:33;;;;;;;1.63;1.13;;;5.30;89.40;;;;;;5069990;28;20281;-66
2023/03/17 02:14:00;;;;;;;2.20;1.95;;;5.30;89.30;;;;;;5069568;28;20256;-66
2023/03/17 02:16:30;;;;;;;2.40;2.03;;;5.30;89.50;;;;;;5069339;28;20582;-66
2023/03/17 02:18:58;;;;;;;1.00;1.00;;;5.30;95.80;;;;;;5068315;28;20191;-66
2023/03/17 02:21:41;;;;;;;3.70;2.10;;;5.20;90.20;;;;;;5070190;28;20215;-66
2023/03/17 02:24:16;;;;;;;2.47;1.75;;;5.20;90.20;;;;;;5070085;28;20297;-66
2023/03/17 02:26:47;;;;;;;4.13;1.70;;;5.20;90.10;;;;;;5070103;28;20711;-68
2023/03/17 02:29:15;;;;;;;2.45;2.17;;;5.10;90.20;;;;;;5068018;28;20202;-66
2023/03/17 02:31:44;;;;;;;2.92;2.55;;;4.90;99.90;;;;;;5068788;28;20227;-66
2023/03/17 02:34:12;;;;;;;1.85;1.75;;;5.00;97.70;;;;;;5069373;28;20195;-66
2023/03/17 02:36:40;;;;;;;2.75;2.25;;;4.90;97.30;;;;;;5069140;28;20208;-66
2023/03/17 02:39:08;;;;;;;1.20;0.90;;;4.90;97.00;;;;;;5068948;28;20218;-66
2023/03/17 02:41:36;;;;;;;1.00;1.00;;;4.90;97.20;;;;;;5070028;28;20310;-66
2023/03/17 02:44:04;;;;;;;2.05;1.20;;;5.10;90.10;;;;;;5069524;28;20700;-66
2023/03/17 02:46:31;;;;;;;1.10;1.10;;;5.10;90.00;;;;;;5068845;28;20639;-66
2023/03/17 02:49:00;;;;;;;1.27;1.17;;;5.10;90.00;;;;;;5069060;28;20297;-66
2023/03/17 02:51:28;;;;;;;3.28;2.05;;;5.10;89.80;;;;;;5067031;28;20212;-65
2023/03/17 02:53:57;;;;;;;1.27;1.17;;;5.20;98.60;;;;;;5068462;28;20561;-66
2023/03/17 02:56:24;;;;;;;2.13;1.42;;;5.00;97.90;;;;;;5069201;28;20242;-66
2023/03/17 02:58:51;;;;;;;0.95;0.90;;;5.10;89.00;;;;;;5067815;28;20188;-66
2023/03/17 03:01:19;;;;;;;1.40;1.30;;;5.40;99.90;;;;;;5068999;28;20264;-66
2023/03/17 03:03:50;;;;;;;1.77;1.77;;;5.20;88.90;;;;;;5068968;28;20697;-67
2023/03/17 03:06:18;;;;;;;0.88;0.85;;;;;;;;;;5069051;28;20215;-67
2023/03/17 03:08:47;;;;;;;2.88;1.75;;;4.80;90.00;;;;;;5051961;28;20279;-66
2023/03/17 03:11:15;;;;;;;3.33;1.45;;;5.10;89.30;;;;;;5069503;28;20747;-66
2023/03/17 03:13:42;;;;;;;2.28;1.58;;;5.10;89.90;;;;;;5068132;28;20202;-66
2023/03/17 03:16:09;;;;;;;6.03;2.80;;;5.10;90.00;;;;;;5069395;28;20277;-66
2023/03/17 03:18:37;;;;;;;0.60;0.60;;;5.10;90.00;;;;;;5068259;28;20196;-66
2023/03/17 03:21:04;;;;;;;1.77;1.63;;;5.10;90.00;;;;;;5069314;28;20701;-66
2023/03/17 03:23:31;;;;;;;1.58;1.48;;;5.10;97.00;;;;;;5068389;28;20216;-65
2023/03/17 03:25:58;;;;;;;1.30;1.25;;;4.90;97.40;;;;;;5069119;28;20208;-66
2023/03/17 03:28:27;;;;;;;0.82;0.82;;;5.00;99.90;;;;;;5068377;28;20662;-66
2023/03/17 03:30:54;;;;;;;1.60;1.50;;;5.00;90.10;;;;;;5068599;28;20577;-66
2023/03/17 03:33:22;;;;;;;2.63;2.10;;;5.00;90.00;;;;;;5068772;28;20203;-66
2023/03/17 03:35:50;;;;;;;1.45;1.35;;;;;;;;;;5067598;28;20215;-67
2023/03/17 03:38:18;;;;;;;0.77;0.77;;;;;;;;;;5067740;28;20188;-66
2023/03/17 03:40:46;;;;;;;0.60;0.60;;;4.90;90.00;;;;;;5069166;28;20216;-65
2023/03/17 03:43:13;;;;;;;2.15;1.27;;;4.90;98.90;;;;;;5069271;28;20208;-66
2023/03/17 03:45:41;;;;;;;1.05;0.70;;;4.80;89.90;;;;;;5068124;28;20227;-66
2023/03/17 03:48:08;;;;;;;0.95;0.85;;;4.90;90.20;;;;;;5067336;28;20278;-65
2023/03/17 03:50:37;;;;;;;1.35;1.25;;;4.60;99.90;;;;;;5070003;28;20246;-66
2023/03/17 03:53:04;;;;;;;1.48;1.00;;;4.70;90.10;;;;;;5069530;28;20282;-65
2023/03/17 03:55:32;;;;;;;1.15;1.15;;;4.80;90.40;;;;;;5070081;28;20250;-66
2023/03/17 03:57:59;;;;;;;2.17;2.03;;;4.80;90.30;;;;;;5069850;28;20219;-67
2023/03/17 04:00:27;;;;;;;2.00;1.40;;;4.80;90.30;;;;;;5071098;28;20632;-66
2023/03/17 04:02:55;;;;;;;0.60;0.60;;;4.60;98.40;;;;;;5069812;28;20736;-66
2023/03/17 04:05:22;;;;;;;1.30;1.20;;;4.70;99.90;;;;;;5069904;28;20191;-66
2023/03/17 04:07:49;;;;;;;3.85;1.50;;;4.70;90.20;;;;;;5071086;28;20187;-66
2023/03/17 04:10:17;;;;;;;1.60;1.48;;;4.70;98.90;;;;;;5069764;28;20526;-66
2023/03/17 04:12:45;;;;;;;7.53;1.25;;;4.70;90.10;;;;;;5067436;28;20192;-67
2023/03/17 04:15:16;;;;;;;2.17;1.50;;;4.70;90.20;;;;;;5066514;28;20233;-66
2023/03/17 04:17:43;;;;;;;2.10;2.00;;;4.70;99.90;;;;;;5069564;28;20277;-66
2023/03/17 04:20:13;;;;;;;2.05;1.95;;;4.60;90.50;;;;;;5069392;28;20191;-66
2023/03/17 04:22:41;;;;;;;6.07;2.50;;;4.60;99.90;;;;;;5069839;28;20190;-66
2023/03/17 04:25:09;;;;;;;1.40;1.30;;;4.50;90.60;;;;;;5069353;28;20210;-66
2023/03/17 04:27:36;;;;;;;1.63;1.40;;;4.50;90.60;;;;;;5070234;28;20198;-66
2023/03/17 04:30:03;;;;;;;1.27;1.20;;;4.30;94.30;;;;;;5068855;28;20703;-66
2023/03/17 04:32:30;;;;;;;0.80;0.52;;;4.50;90.40;;;;;;5069958;28;20194;-67
2023/03/17 04:34:57;;;;;;;4.30;2.28;;;4.50;93.80;;;;;;5070809;28;20195;-67
2023/03/17 04:37:26;;;;;;;2.85;1.45;;;4.60;98.60;;;;;;5068825;28;20226;-66
2023/03/17 04:39:54;;;;;;;1.27;0.70;;;4.40;99.90;;;;;;5068221;28;20195;-66
2023/03/17 04:42:21;;;;;;;1.73;1.30;;;;;;;;;;5069848;28;20222;-66
2023/03/17 04:44:48;;;;;;;1.55;1.40;;;4.40;98.00;;;;;;5069291;28;20269;-67
2023/03/17 04:47:15;;;;;;;0.88;0.88;;;4.50;90.50;;;;;;5070085;28;20219;-66
2023/03/17 04:49:42;;;;;;;1.33;1.23;;;4.50;90.50;;;;;;5068843;28;20214;-66
2023/03/17 04:52:09;;;;;;;2.47;1.13;;;4.50;90.50;;;;;;5068680;28;20215;-66
2023/03/17 04:54:37;;;;;;;2.00;1.90;;;4.40;90.40;;;;;;5069981;28;20207;-65
2023/03/17 04:57:04;;;;;;;0.90;0.90;;;4.40;90.50;;;;;;5070218;28;20546;-67
2023/03/17 04:59:31;;;;;;;2.10;1.50;;;4.30;90.80;;;;;;5066396;28;20210;-66
2023/03/17 05:01:58;;;;;;;1.60;1.27;;;4.30;90.80;;;;;;5068844;28;20219;-66
2023/03/17 05:04:25;;;;;;;2.83;2.45;;;4.30;90.90;;;;;;5070075;28;20216;-66
2023/03/17 05:06:51;;;;;;;1.33;1.08;;;4.30;91.20;;;;;;5069438;28;20249;-66
2023/03/17 05:09:18;;;;;;;1.02;0.98;;;4.20;90.70;;;;;;5067432;28;20878;-66
2023/03/17 05:11:46;;;;;;;1.70;1.60;;;4.20;90.50;;;;;;5067688;28;20567;-68
2023/03/17 05:14:13;;;;;;;1.63;1.52;;;4.20;90.70;;;;;;5066908;28;20187;-66
2023/03/17 05:16:40;;;;;;;1.42;1.10;;;4.20;90.70;;;;;;5068577;28;20229;-66
2023/03/17 05:19:07;;;;;;;1.48;0.65;;;4.20;90.50;;;;;;5067627;28;20213;-67
2023/03/17 05:21:34;;;;;;;2.15;1.33;;;4.20;90.40;;;;;;5069078;28;20276;-66
2023/03/17 05:24:00;;;;;;;1.20;1.13;;;4.30;90.70;;;;;;5069300;28;20220;-66
2023/03/17 05:26:27;;;;;;;1.65;1.55;;;4.30;98.80;;;;;;5069232;28;20211;-66
2023/03/17 05:28:55;;;;;;;1.08;1.08;;;3.90;99.90;;;;;;5069214;28;20191;-66
2023/03/17 05:31:22;;;;;;;1.00;0.60;;;;;;;;;;5068478;28;20224;-66
2023/03/17 05:33:49;;;;;;;2.70;1.42;;;4.00;91.00;;;;;;5069219;28;20226;-66
2023/03/17 05:36:16;;;;;;;2.15;1.20;;;4.00;91.20;;;;;;5068163;28;20221;-66
2023/03/17 05:38:44;;;;;;;1.50;1.40;;;3.90;99.90;;;;;;5068573;28;20210;-66
2023/03/17 05:41:11;;;;;;;2.13;1.88;;;4.00;99.90;;;;;;5068575;28;20269;-66
2023/03/17 05:43:38;;;;;;;1.60;1.50;;;4.00;91.30;;;;;;5069617;28;20223;-65
2023/03/17 05:46:07;;;;;;;1.52;0.75;;;4.10;97.80;;;;;;5068055;28;20207;-66
2023/03/17 05:48:33;;;;;;;0.60;0.60;;;3.70;99.90;;;;;;5067787;28;20202;-66
2023/03/17 05:51:00;;;;;;;0.70;0.70;;;4.10;99.90;;;;;;5067687;28;20215;-66
2023/03/17 05:53:27;;;;;;;0.70;0.68;;;5.20;99.90;;;;;;5068344;28;20573;-67
2023/03/17 05:55:54;;;;;;;0.40;0.40;;;4.30;99.90;;;;;;5067390;28;20247;-66
2023/03/17 05:58:21;;;;;;;1.52;0.70;;;4.30;96.80;;;;;;5068116;28;20210;-66
2023/03/17 06:00:47;;;;;;;1.02;0.93;;;3.80;96.10;;;;;;5066101;28;20222;-66
2023/03/17 06:03:15;;;;;;;1.48;1.00;;;4.10;99.30;;;;;;5068685;28;20257;-66
2023/03/17 06:05:42;;;;;;;0.55;0.55;;;4.40;95.10;;;;;;5067156;28;20234;-68
2023/03/17 06:08:09;;;;;;;2.15;0.93;;;4.40;96.90;;;;;;5067818;28;20278;-68
2023/03/17 06:10:36;;;;;;;0.82;0.82;;;4.30;97.00;;;;;;5067040;28;20302;-67
2023/03/17 06:13:03;;;;;;;0.52;0.38;;;4.80;98.10;;;;;;5066366;28;20195;-67
2023/03/17 06:15:31;;;;;;;0.43;0.43;;;4.80;82.50;;;;;;5066357;28;20230;-67
2023/03/17 06:17:58;;;;;;;0.35;0.35;;;4.80;95.20;;;;;;5066474;28;20736;-67
2023/03/17 06:20:26;;;;;;;0.40;0.40;;;4.60;95.00;;;;;;5065775;28;20222;-67
2023/03/17 06:22:53;;;;;;;0.40;0.40;;;4.90;96.80;;;;;;5064813;28;20274;-67
2023/03/17 06:25:20;;;;;;;1.65;0.55;;;;;;;;;;5067223;28;20717;-66
2023/03/17 06:27:48;;;;;;;0.40;0.32;;;5.10;96.30;;;;;;5067229;28;20223;-66
2023/03/17 06:30:15;;;;;;;0.93;0.47;;;5.30;97.90;;;;;;5065276;28;20248;-66
2023/03/17 06:32:41;;;;;;;0.70;0.70;;;4.90;97.10;;;;;;5066690;28;20199;-66
2023/03/17 06:35:09;;;;;;;4.05;1.27;;;5.10;81.80;;;;;;5067841;28;20188;-67
2023/03/17 06:37:37;;;;;;;1.00;0.80;;;4.80;82.10;;;;;;5069192;28;20187;-66
2023/03/17 06:40:08;;;;;;;1.80;1.23;;;5.10;81.40;;;;;;5068314;28;20206;-67
2023/03/17 06:42:35;;;;;;;1.85;1.55;;;5.10;82.00;;;;;;5070104;28;20275;-67
2023/03/17 06:45:02;;;;;;;1.42;1.33;;;5.20;81.70;;;;;;5069328;28;20218;-66
2023/03/17 06:47:29;;;;;;;2.45;1.73;;;5.20;90.60;;;;;;5069350;28;20198;-66
2023/03/17 06:49:56;;;;;;;3.67;2.00;;;5.50;91.20;;;;;;5053419;28;20743;-67
2023/03/17 06:52:23;;;;;;;1.95;1.75;;;5.40;81.30;;;;;;5060717;28;20216;-67
2023/03/17 06:54:51;;;;;;;2.88;1.35;;;5.50;83.10;;;;;;5059577;28;20198;-68
2023/03/17 06:57:18;;;;;;;0.50;0.50;;;5.60;80.40;;;;;;5066407;28;20245;-67
2023/03/17 06:59:45;;;;;;;2.35;1.45;;;5.80;80.30;;;;;;5067775;28;20195;-67
2023/03/17 07:02:12;;;;;;;0.98;0.95;;;6.00;79.60;;;;;;5068603;28;20215;-69
2023/03/17 07:04:39;;;;;;;3.85;2.08;;;6.30;79.50;;;;;;5069939;28;20273;-66
2023/03/17 07:07:06;;;;;;;2.60;2.25;;;6.30;78.10;;;;;;5068899;28;20801;-67
2023/03/17 07:09:34;;;;;;;0.98;0.98;;;6.40;78.30;;;;;;5067805;28;20199;-67
2023/03/17 07:12:03;;;;;;;1.58;1.50;;;6.50;78.00;;;;;;5068076;28;20227;-67
2023/03/17 07:14:33;;;;;;;1.10;0.77;;;6.60;77.60;;;;;;5069383;28;20198;-67
2023/03/17 07:17:04;;;;;;;1.70;1.38;;;6.80;77.50;;;;;;5068598;28;20908;-67
2023/03/17 07:19:31;;;;;;;0.52;0.52;;;6.90;77.20;;;;;;5068179;28;20218;-67
2023/03/17 07:21:58;;;;;;;1.15;1.05;;;7.00;77.20;;;;;;5070792;28;20215;-67
2023/03/17 07:24:25;;;;;;;1.73;1.40;;;7.10;77.50;;;;;;5072382;28;20219;-66
2023/03/17 07:26:52;;;;;;;1.40;1.33;;;7.20;75.90;;;;;;5072750;28;20238;-65
2023/03/17 07:29:21;;;;;;;1.50;1.40;;;7.30;76.40;;;;;;5071364;28;20628;-66
2023/03/17 07:31:48;;;;;;;6.45;1.60;;;7.40;87.50;;;;;;5073064;28;20663;-66
2023/03/17 07:34:16;;;;;;;0.93;0.88;;;7.50;90.10;;;;;;5072689;28;20203;-65
2023/03/17 07:36:43;;;;;;;1.70;1.30;;;7.40;76.40;;;;;;5072778;28;20219;-66
2023/03/17 07:39:10;;;;;;;1.43;1.33;;;7.50;77.00;;;;;;5071313;28;20195;-65
2023/03/17 07:41:37;;;;;;;1.00;0.83;;;7.60;76.90;;;;;;5070895;28;20644;-66
2023/03/17 07:44:04;;;;;;;1.80;1.40;;;7.60;77.00;;;;;;5072067;28;20660;-67
2023/03/17 07:46:32;;;;;;;2.73;1.87;;;7.60;76.80;;;;;;5072323;28;20657;-67
2023/03/17 07:48:59;;;;;;;2.20;2.00;;;7.70;76.40;;;;;;5071103;28;21093;-67
2023/03/17 07:51:26;;;;;;;2.10;1.90;;;7.90;81.10;;;;;;5068333;28;20639;-67
2023/03/17 07:54:01;;;;;;;1.73;1.63;;;7.80;74.80;;;;;;5072139;28;20977;-67
2023/03/17 07:56:30;;;;;;;1.77;1.10;;;7.90;74.60;;;;;;5071255;28;20653;-67
2023/03/17 07:58:57;;;;;;;2.77;1.53;;;8.00;75.30;;;;;;5063236;28;21178;-67
2023/03/17 08:01:25;;;;;;;1.13;1.13;;;8.20;73.50;;;;;;5072820;28;21180;-67
2023/03/17 08:03:53;;;;;;;1.27;1.17;;;8.30;73.50;;;;;;5072128;28;20626;-67
2023/03/17 08:06:20;;;;;;;2.60;1.30;;;8.40;72.30;;;;;;5070653;28;20641;-67
2023/03/17 08:08:52;;;;;;;0.90;0.87;;;8.40;72.60;;;;;;5069843;28;21198;-70
2023/03/17 08:11:19;;;;;;;1.80;0.90;;;8.50;73.00;;;;;;5071154;28;20669;-67
2023/03/17 08:13:46;;;;;;;1.50;1.40;;;8.60;72.80;;;;;;5068193;28;20648;-71
2023/03/17 08:16:13;;;;;;;0.70;0.63;;;8.70;72.80;;;;;;5069947;28;20711;-69
2023/03/17 08:18:40;;;;;;;0.80;0.80;;;8.80;70.90;;;;;;5070958;28;21246;-69
2023/03/17 08:21:09;;;;;;;1.50;0.97;;;9.10;70.00;;;;;;5069568;28;20637;-69
2023/03/17 08:23:36;;;;;;;0.50;0.47;;;9.30;83.30;;;;;;5066753;28;20657;-68
2023/03/17 08:26:04;;;;;;;1.23;0.90;;;9.20;69.40;;;;;;5065576;28;20700;-67
2023/03/17 08:28:31;;;;;;;1.10;0.93;;;9.50;68.90;;;;;;5070775;28;20891;-66
2023/03/17 08:31:08;;;;;;;1.23;1.13;;;9.80;74.30;;;;;;5069922;28;20649;-67
2023/03/17 08:33:35;;;;;;;1.10;1.10;;;9.50;68.30;;;;;;5071655;28;20632;-67
2023/03/17 08:36:05;;;;;;;1.80;1.20;;;9.50;67.90;;;;;;5071109;28;20752;-67
2023/03/17 08:38:33;;;;;;;1.17;0.90;;;9.60;67.50;;;;;;5070293;28;20629;-67
2023/03/17 08:41:01;;;;;;;1.03;0.73;;;9.70;68.00;;;;;;5070981;28;20640;-67
2023/03/17 08:43:28;;;;;;;0.77;0.77;;;9.70;81.30;;;;;;5072087;28;21189;-64
2023/03/17 08:46:01;;;;;;;0.83;0.83;;;9.80;66.50;;;;;;5070099;28;20669;-66
2023/03/17 08:48:29;;;;;;;0.50;0.50;;;10.10;79.80;;;;;;5069386;28;21171;-66
2023/03/17 08:50:56;;;;;;;0.80;0.80;;;10.20;64.60;;;;;;5069686;28;20656;-65
2023/03/17 08:53:24;;;;;;;5.30;1.17;;;10.20;62.50;;;;;;5068890;28;20649;-67
2023/03/17 08:55:54;;;;;;;0.70;0.70;;;10.30;78.50;;;;;;5064029;28;21233;-68
2023/03/17 08:58:21;;;;;;;1.33;1.23;;;10.70;76.50;;;;;;5067966;28;20622;-67
2023/03/17 09:00:48;;;;;;;1.30;0.83;;;10.60;63.60;;;;;;5066095;28;20740;-68
2023/03/17 09:03:15;;;;;;;1.30;0.70;;;10.70;64.30;;;;;;5068102;28;21002;-67
2023/03/17 09:05:42;;;;;;;1.03;0.93;;;10.70;63.90;;;;;;5066812;28;20672;-67
2023/03/17 09:08:10;;;;;;;3.40;1.03;;;10.80;64.40;;;;;;5068638;28;21174;-67
2023/03/17 09:10:37;;;;;;;1.80;0.83;;;11.00;61.50;;;;;;5069581;28;20653;-67
2023/03/17 09:13:07;;;;;;;0.70;0.70;;;11.20;63.30;;;;;;5068961;28;20629;-67
2023/03/17 09:15:35;;;;;;;0.90;0.60;;;11.40;63.10;;;;;;5066685;28;20803;-67
2023/03/17 09:18:03;;;;;;;2.83;0.97;;;11.70;62.00;;;;;;5069670;28;20728;-67
2023/03/17 09:20:30;;;;;;;0.87;0.67;;;11.80;61.20;;;;;;5069859;28;20652;-67
2023/03/17 09:22:57;;;;;;;0.30;0.30;;;11.90;61.20;;;;;;5070275;28;20628;-67
2023/03/17 09:25:24;;;;;;;0.40;0.37;;;12.10;59.30;;;;;;5069474;28;21240;-67
2023/03/17 09:27:51;;;;;;;0.93;0.67;;;12.20;61.10;;;;;;5069762;28;21194;-67
2023/03/17 09:30:19;;;;;;;1.53;0.70;;;12.30;73.80;;;;;;5068458;28;20632;-67
2023/03/17 09:32:46;;;;;;;1.40;0.63;;;12.50;59.50;;;;;;5068177;28;20660;-67
2023/03/17 09:35:13;;;;;;;1.30;0.60;;;12.50;58.60;;;;;;5069272;28;21538;-68
2023/03/17 09:37:40;;;;;;;1.80;0.70;;;12.50;59.00;;;;;;5069647;28;20625;-68
2023/03/17 09:40:08;;;;;;;1.93;1.67;;;12.20;64.80;;;;;;5068232;28;21171;-67
2023/03/17 09:42:47;;;;;;;0.60;0.60;;;12.40;60.00;;;;;;5068696;28;20618;-67
2023/03/17 09:45:30;;;;;;;3.20;1.30;;;12.60;72.70;;;;;;5066156;28;21234;-67
2023/03/17 09:48:25;;;;;;;0.30;0.30;;;12.40;59.60;;;;;;5066812;28;21204;-67
2023/03/17 09:50:56;;;;;;;0.53;0.27;;;12.60;58.40;;;;;;5066956;28;20645;-67
2023/03/17 09:53:27;;;;;;;0.50;0.40;;;12.70;58.90;;;;;;5068856;28;21167;-66
2023/03/17 09:55:57;;;;;;;1.47;0.83;;;12.90;57.90;;;;;;5068303;28;20660;-67
2023/03/17 09:58:30;;;;;;;0.80;0.40;;;13.00;59.00;;;;;;5068207;28;21367;-67
2023/03/17 10:00:59;;;;;;;0.50;0.40;;;13.00;59.60;;;;;;5069881;28;20681;-67
2023/03/17 10:03:27;;;;;;;0.60;0.50;;;13.30;58.30;;;;;;5068278;28;20652;-68
2023/03/17 10:05:58;;;;;;;0.60;0.60;;;13.40;58.90;;;;;;5069152;28;20722;-67
2023/03/17 10:08:30;;;;;;;1.50;0.67;;;13.40;58.10;;;;;;5057878;28;20633;-67
2023/03/17 10:11:05;;;;;;;0.63;0.47;;;13.50;57.80;;;;;;5069421;28;21252;-67
2023/03/17 10:13:45;;;;;;;0.47;0.43;;;13.60;56.90;;;;;;5067070;28;20673;-67
2023/03/17 10:16:17;;;;;;;0.60;0.60;;;13.70;56.50;;;;;;5068311;28;20723;-67
2023/03/17 10:18:49;;;;;;;0.90;0.40;;;13.80;57.50;;;;;;5068264;28;20660;-67
2023/03/17 10:21:23;;;;;;;0.50;0.40;;;13.90;56.80;;;;;;5070081;28;20685;-65
2023/03/17 10:23:50;;;;;;;0.60;0.60;;;13.90;57.00;;;;;;5068556;28;20649;-67
2023/03/17 10:26:26;;;;;;;0.87;0.87;;;14.00;56.60;;;;;;5067756;28;21014;-65
2023/03/17 10:28:53;;;;;;;2.10;0.70;;;14.00;58.10;;;;;;5068268;28;20617;-65
2023/03/17 10:31:28;;;;;;;0.70;0.60;;;14.10;57.40;;;;;;5069747;28;20661;-65
2023/03/17 10:33:57;;;;;;;1.57;0.97;;;14.20;57.60;;;;;;5069812;28;20616;-65
2023/03/17 10:36:34;;;;;;;0.77;0.77;;;14.40;57.40;;;;;;5068164;28;20646;-66
2023/03/17 10:39:04;;;;;;;0.83;0.60;;;14.50;56.80;;;;;;5067331;28;21206;-66
2023/03/17 10:41:32;;;;;;;1.03;0.70;;;14.50;57.30;;;;;;5069170;28;20656;-66
2023/03/17 10:43:59;;;;;;;0.60;0.53;;;14.60;57.50;;;;;;5069273;28;20657;-65
2023/03/17 10:46:29;;;;;;;0.60;0.60;;;14.70;57.30;;;;;;5068972;28;20660;-65
2023/03/17 10:49:03;;;;;;;0.50;0.40;;;15.00;56.00;;;;;;5069018;28;20625;-66
2023/03/17 10:51:32;;;;;;;0.60;0.60;;;15.00;56.30;;;;;;5064047;28;20661;-65
2023/03/17 10:54:02;;;;;;;0.50;0.50;;;15.10;55.60;;;;;;5064071;28;20626;-65
2023/03/17 10:56:34;;;;;;;0.80;0.80;;;15.20;56.20;;;;;;5068628;28;20747;-65
2023/03/17 10:59:07;;;;;;;1.20;0.80;;;15.30;56.50;;;;;;5071575;28;20199;-66
2023/03/17 11:01:38;;;;;;;1.13;0.50;;;15.40;55.80;;;;;;5069049;28;20659;-65
2023/03/17 11:04:26;;;;;;;0.77;0.70;;;15.40;55.00;;;;;;5053897;28;21313;-66
2023/03/17 11:06:56;;;;;;;0.50;0.50;;;15.40;55.80;;;;;;5053671;28;20678;-65
2023/03/17 11:09:23;;;;;;;0.83;0.60;;;15.40;55.50;;;;;;5067981;28;20617;-65
2023/03/17 11:12:01;;;;;;;0.50;0.50;;;15.50;55.10;;;;;;5073872;28;20704;-66
2023/03/17 11:14:29;;;;;;;1.27;0.90;;;15.50;55.40;;;;;;5069893;28;21034;-67
2023/03/17 11:16:59;;;;;;;0.93;0.90;;;15.60;55.90;;;;;;5072574;28;21222;-65
2023/03/17 11:19:36;;;;;;;1.20;1.10;;;15.70;55.30;;;;;;5072493;28;20622;-66
2023/03/17 11:22:10;;;;;;;2.37;1.30;;;15.70;56.10;;;;;;5072767;28;20663;-65
2023/03/17 11:24:47;;;;;;;1.20;0.83;;;15.80;57.00;;;;;;5073144;28;21178;-66
2023/03/17 11:27:24;;;;;;;3.90;1.10;;;15.80;57.50;;;;;;5072636;28;21249;-66
2023/03/17 11:30:12;;;;;;;1.23;1.07;;;15.90;58.10;;;;;;5072203;28;20620;-66
2023/03/17 11:32:48;;;;;;;1.90;1.23;;;16.00;58.10;;;;;;5073502;28;20621;-65
2023/03/17 11:35:38;;;;;;;1.10;1.00;;;16.00;58.40;;;;;;5072180;28;20640;-65
2023/03/17 11:38:18;;;;;;;2.33;1.65;;;16.00;58.40;;;;;;5070612;28;20869;-66
2023/03/17 11:40:57;;;;;;;1.50;1.10;;;16.10;58.80;;;;;;5072698;28;20219;-65
2023/03/17 11:43:32;;;;;;;1.00;0.90;;;16.10;59.30;;;;;;5070018;28;20709;-67
2023/03/17 11:46:07;;;;;;;1.60;1.50;;;16.10;59.40;;;;;;5072092;28;21216;-65
2023/03/17 11:48:45;;;;;;;1.20;1.10;;;16.20;59.50;;;;;;5071640;28;20629;-68
2023/03/17 11:51:21;;;;;;;2.20;1.30;;;16.40;58.10;;;;;;5068537;28;20644;-65
2023/03/17 11:54:03;;;;;;;1.00;0.90;;;16.40;57.40;;;;;;5069957;28;20973;-68
2023/03/17 11:56:40;;;;;;;2.50;0.90;;;16.50;57.60;;;;;;5072508;28;20657;-67
2023/03/17 11:59:15;;;;;;;1.57;1.47;;;16.60;57.10;;;;;;5070089;28;20621;-66
2023/03/17 12:01:53;;;;;;;1.10;0.73;;;16.70;56.60;;;;;;5071680;28;20655;-66
2023/03/17 12:04:28;;;;;;;1.07;0.70;;;16.80;56.00;;;;;;5071970;28;20625;-67
2023/03/17 12:07:00;;;;;;;1.20;1.10;;;16.90;55.40;;;;;;5067175;28;20782;-66
2023/03/17 12:09:31;;;;;;;0.60;0.57;;;17.00;55.50;;;;;;5066951;28;21148;-67
2023/03/17 12:12:01;;;;;;;0.90;0.70;;;17.00;54.60;;;;;;5071460;28;20648;-66
2023/03/17 12:14:32;;;;;;;1.17;0.57;;;17.10;54.50;;;;;;5072078;28;20629;-66
2023/03/17 12:17:06;;;;;;;0.40;0.40;;;17.10;53.50;;;;;;5069991;28;20757;-66
2023/03/17 12:19:51;;;;;;;1.17;1.07;;;17.20;52.60;;;;;;5070400;28;20712;-66
2023/03/17 12:22:27;;;;;;;0.30;0.30;;;17.20;52.80;;;;;;5071658;28;20645;-66
2023/03/17 12:25:04;;;;;;;0.90;0.70;;;17.30;54.00;;;;;;5071807;28;20629;-66
2023/03/17 12:27:36;;;;;;;0.70;0.60;;;17.40;54.10;;;;;;5071462;28;20687;-66
2023/03/17 12:30:08;;;;;;;3.23;0.93;;;17.50;53.30;;;;;;5070365;28;20985;-66
2023/03/17 12:32:40;;;;;;;0.87;0.73;;;17.60;53.10;;;;;;5071985;28;20624;-66
2023/03/17 12:35:26;;;;;;;0.40;0.40;;;17.60;52.90;;;;;;5071816;28;20692;-66
2023/03/17 12:37:54;;;;;;;0.60;0.50;;;17.60;51.60;;;;;;5071309;28;20628;-66
2023/03/17 12:40:25;;;;;;;2.87;0.60;;;17.60;52.10;;;;;;5070766;28;20624;-66
2023/03/17 12:42:52;;;;;;;0.70;0.70;;;17.70;52.10;;;;;;5071180;28;21186;-66
2023/03/17 12:45:37;;;;;;;0.77;0.77;;;17.80;52.40;;;;;;5071123;28;20621;-66
2023/03/17 12:48:29;;;;;;;0.70;0.70;;;17.70;53.10;;;;;;5070369;28;20624;-66
2023/03/17 12:51:17;;;;;;;0.80;0.57;;;17.80;52.70;;;;;;5070314;28;20744;-66
2023/03/17 12:53:46;;;;;;;0.70;0.70;;;17.80;53.50;;;;;;5068267;28;21110;-66
2023/03/17 12:56:19;;;;;;;1.00;0.77;;;17.90;53.10;;;;;;5070919;28;20703;-66
2023/03/17 12:58:49;;;;;;;1.00;0.93;;;18.00;53.60;;;;;;5070372;28;20625;-66
2023/03/17 13:01:25;;;;;;;1.20;0.87;;;18.10;53.60;;;;;;5070542;28;20742;-66
2023/03/17 13:04:06;;;;;;;1.63;0.90;;;18.10;53.60;;;;;;5071321;28;20982;-66
2023/03/17 13:06:41;;;;;;;0.80;0.80;;;18.00;53.70;;;;;;5071262;28;20657;-66
2023/03/17 13:09:29;;;;;;;0.63;0.63;;;18.00;51.20;;;;;;5065778;28;20653;-66